Nykobing, Denmark
Current Conditions -  °F | °C
As of 1:50 PM on Saturday 20 Dec 2014 (Local Time) from EKRK Reporting Station
Rain Showers Rain Showers  
Wind Chill: -3°   Ceiling: 1300
Heat Index:   Visibility: 6mi
Dew Point:   Wind: 23mph
Humidity: 93%   Direction: 270°W
Pressure: 29.41"   Gusts: 38mph
Location:  55.94°N, 11.65°E
Report Text: EKRK 201250Z AUTO 27020G33KT 9000NDV -SHRA FEW010///BKN013/// BKN020/// 03/02 Q0996 RESHRA
Loading
Personal Weather Stations






























Interactive Weather Map New forecast layout! Learn more

10-Day Weather Forecast

Advertisements
Track Severe Weather on mobile